Terminal Aerodrome Forecast
Issued by NWS Melbourne, FL

Home | Current Version | Previous Version | Text Only | Print | Product List | Glossary On
Versions: 1 2 3 4 5 6 7 8 9 10 11 12 13 14 15 16 17 18 19
175
FTUS42 KMLB 201136
TAFMLB
TAF
KMLB 201136Z 2012/2112 30003KT P6SM FEW020 SCT100
     FM201400 04006KT P6SM SCT025 SCT100
     FM201800 06011KT P6SM SCT030
     FM210200 06007KT P6SM SCT100=

USA.gov is the U.S. government's official web portal to all federal, state and local government web resources and services.